Terminal Aerodrome Forecast
Issued by NWS Corpus Christi, TX

Home | Current Version | Previous Version | Text Only | Print | Product List | Glossary On
Versions: 1 2 3 4 5 6 7 8 9 10 11 12 13 14 15 16 17 18 19 20 21
000
FTUS44 KCRP 301741
TAFCRP
TAF
KCRP 301741Z 3018/0118 06007KT P6SM FEW025 BKN250
     FM302100 12010KT P6SM FEW035 BKN250
     FM010600 13007KT P6SM SCT015
     FM010900 09006KT 5SM BR OVC009
     FM011500 13010KT P6SM BKN015 BKN025=

USA.gov is the U.S. government's official web portal to all federal, state and local government web resources and services.